Terminal Aerodrome Forecast
Issued by NWS

Home | Current Version | Previous Version | Text Only | Print | Product List | Glossary On
Versions: 1 2 3 4 5 6 7 8 9 10 11 12 13 14 15 16 17
000
FTUS42 KMLB 051728
TAFSUA
TAF
KSUA 051728Z 0518/0618 13007KT P6SM VCTS BKN022CB BKN100
      TEMPO 0518/0520 3SM TSRA BKN020CB OVC040
     FM052000 11010KT P6SM VCTS SCT030CB BKN100
     FM060300 13004KT P6SM SCT050 OVC120
     FM060600 15005KT P6SM FEW020 SCT250=

USA.gov is the U.S. government's official web portal to all federal, state and local government web resources and services.